• Join FlightAware (Why Join?)
  • Login
  • US Flag 
09:37AM EDT


 

Airport Tracker/Info


-or-


 

Live Flight TrackerFlight Track Log ✈ N946RM ✈ 08-Mar-2014 ✈ KAUO - KBHM

Flight Track Log - Related Links

Times and Time Zones

All times are in EST time to prevent confusion due to time zone crossing. See the N946RM flight status page for this flight to view local times or setup timezone preferences in your user account.

Time Position Orientation Groundspeed Altitude Reporting Facility
EST Latitude Longitude Course Direction KTS MPH feet Rate Location/Type
10:50PM 32.7167 -85.5833 311° West 273 314 9,600  Level Atlanta TRACON
10:50PM 32.7428 -85.6094 320° Northwest 292 336 9,900 240 Climbing Atlanta Center
10:51PM 32.7961 -85.6822 311° West 297 342 10,000  Climbing Atlanta Center
10:52PM 32.8514 -85.7572 311° West 291 335 10,000  Level Atlanta Center
10:53PM 32.9047 -85.8300 311° West 291 335 10,000  Level Atlanta Center
10:54PM 32.9556 -85.9031 310° West 291 335 10,000  Level Atlanta Center
10:55PM 32.8368 -85.7381 311° West  Level FlightAware Approximate
10:55PM 33.0108 -85.9783 311° West 291 335 10,000  Level Atlanta Center
10:56PM 33.0333 -86.0111 309° West 295 339 10,000  Level Atlanta Center
10:56PM 33.0639 -86.0489 314° West 291 335 10,000  Level Atlanta Center
10:57PM 33.0822 -86.0867 300° West 288 331 10,000  Level Atlanta Center
10:57PM 33.1150 -86.1222 318° Northwest 291 335 10,000  Level Atlanta Center
10:58PM 33.1353 -86.1572 305° West 286 329 10,000  Level Atlanta Center
10:58PM 33.1681 -86.1953 316° Northwest 291 335 10,000  Level Atlanta Center
10:59PM 33.1903 -86.2331 305° West 287 330 10,000  Level Atlanta Center
10:59PM 33.2189 -86.2686 314° West 291 335 10,000 -120 Level Atlanta Center
11:00PM 33.2431 -86.3089 306° West 286 329 9,900 -840 Descending Atlanta Center
11:00PM 33.2739 -86.3347 325° Northwest 286 329 9,200 -1,740 Descending Atlanta Center
11:01PM 33.2983 -86.3725 308° West 285 328 8,200 -1,740 Descending Atlanta Center
11:01PM 33.3272 -86.3981 324° Northwest 286 329 7,500 -1,500 Descending Atlanta Center
11:02PM 33.3514 -86.4361 307° West 263 303 6,700 -1,440 Descending Atlanta Center
11:02PM 33.3761 -86.4592 322° Northwest 269 310 6,100 -1,200 Descending Atlanta Center
11:03PM 33.4044 -86.4997 310° West 246 283 5,400 -1,200 Descending Atlanta Center
11:03PM 33.4247 -86.5228 317° Northwest 256 295 4,900 -1,320 Descending Atlanta Center
11:04PM 33.4553 -86.5661 310° West 256 295 4,100 -1,200 Descending Atlanta Center
11:04PM 33.4736 -86.5839 321° Northwest 250 288 3,700 -1,140 Descending Atlanta Center
11:05PM 33.5061 -86.6272 312° West 260 299 3,000 -720 Descending Atlanta Center
11:05PM 33.5247 -86.6403 330° Northwest 250 288 3,000 -120 Level Atlanta Center
11:06PM 33.5492 -86.6708 314° West 178 205 2,900 -660 Descending Atlanta Center
11:07PM 33.5756 -86.7017 316° Northwest 108 124 2,000 -1,020 Descending Atlanta Center
11:08PM 33.5769 -86.7342 273° West 97 112 900 -1,140 Descending Atlanta Center
11:10PM 33.5639 -86.7523 309° West  Level Estimated